createdAt,value
2022-11-20T00:01:29.217Z,-0.70
2022-11-20T00:03:58.781Z,-0.70
2022-11-20T00:06:27.028Z,-0.70
2022-11-20T00:08:57.181Z,-0.60
2022-11-20T00:11:25.747Z,-0.60
2022-11-20T00:13:55.541Z,-0.60
2022-11-20T00:16:24.766Z,-0.60
2022-11-20T00:18:52.061Z,-0.60
2022-11-20T00:21:27.175Z,-0.60
2022-11-20T00:23:56.285Z,-0.60
2022-11-20T00:26:25.968Z,-0.70
2022-11-20T00:28:55.007Z,-0.70
2022-11-20T00:31:22.245Z,-0.70
2022-11-20T00:33:49.171Z,-0.70
2022-11-20T00:36:19.016Z,-0.70
2022-11-20T00:38:46.579Z,-0.70
2022-11-20T00:41:16.718Z,-0.70
2022-11-20T00:43:44.208Z,-0.70
2022-11-20T00:46:18.912Z,-0.70
2022-11-20T00:48:46.510Z,-0.70
2022-11-20T00:51:16.207Z,-0.70
2022-11-20T00:53:43.166Z,-0.80
2022-11-20T00:56:15.969Z,-0.80
2022-11-20T00:58:44.505Z,-0.80
2022-11-20T01:01:14.155Z,-0.80
2022-11-20T01:03:45.874Z,-0.70
2022-11-20T01:06:16.332Z,-0.80
2022-11-20T01:08:44.028Z,-0.80
2022-11-20T01:11:14.599Z,-0.80
2022-11-20T01:13:42.193Z,-0.80
2022-11-20T01:16:16.201Z,-0.80
2022-11-20T01:18:45.825Z,-0.80
2022-11-20T01:21:33.481Z,-0.80
2022-11-20T01:24:01.232Z,-0.80
2022-11-20T01:26:31.141Z,-0.90
2022-11-20T01:28:59.145Z,-0.90
2022-11-20T01:31:29.297Z,-0.90
2022-11-20T01:33:58.516Z,-0.90
2022-11-20T01:36:27.622Z,-0.90
2022-11-20T01:39:00.727Z,-0.90
2022-11-20T01:41:49.116Z,-0.90
2022-11-20T01:44:18.460Z,-0.90
2022-11-20T01:46:59.565Z,-1.00
2022-11-20T01:49:46.472Z,-1.10
2022-11-20T01:53:00.594Z,-1.10
2022-11-20T01:55:31.902Z,-1.00
2022-11-20T01:57:59.839Z,-1.10
2022-11-20T02:00:26.792Z,-1.10
2022-11-20T02:02:59.451Z,-1.10
2022-11-20T02:05:40.321Z,-1.10
2022-11-20T02:08:08.088Z,-1.10
2022-11-20T02:10:36.365Z,-1.10
2022-11-20T02:13:22.149Z,-1.10
2022-11-20T02:15:49.465Z,-1.20
2022-11-20T02:18:19.514Z,-1.20
2022-11-20T02:20:49.379Z,-1.20
2022-11-20T02:24:00.538Z,-1.20
2022-11-20T02:26:29.645Z,-1.20
2022-11-20T02:28:56.622Z,-1.20
2022-11-20T02:31:23.555Z,-1.10
2022-11-20T02:33:58.948Z,-1.20
2022-11-20T02:36:28.763Z,-1.20
2022-11-20T02:38:55.806Z,-1.20
2022-11-20T02:41:23.163Z,-1.20
2022-11-20T02:43:49.932Z,-1.20
2022-11-20T02:46:16.762Z,-1.30
2022-11-20T02:48:43.525Z,-1.30
2022-11-20T02:51:10.296Z,-1.30
2022-11-20T02:53:37.114Z,-1.30
2022-11-20T02:56:04.097Z,-1.30
2022-11-20T02:58:30.927Z,-1.30
2022-11-20T03:00:57.831Z,-1.40
2022-11-20T03:03:24.684Z,-1.40
2022-11-20T03:05:51.463Z,-1.40
2022-11-20T03:08:18.279Z,-1.40
2022-11-20T03:10:45.060Z,-1.40
2022-11-20T03:13:11.818Z,-1.50
2022-11-20T03:15:38.604Z,-1.50
2022-11-20T03:18:05.623Z,-1.50
2022-11-20T03:20:34.102Z,-1.50
2022-11-20T03:23:01.087Z,-1.40
2022-11-20T03:25:28.351Z,-1.40
2022-11-20T03:27:55.621Z,-1.40
2022-11-20T03:30:27.558Z,-1.50
2022-11-20T03:32:56.170Z,-1.50
2022-11-20T03:35:23.054Z,-1.50
2022-11-20T03:37:49.919Z,-1.60
2022-11-20T03:40:16.820Z,-1.50
2022-11-20T03:42:46.272Z,-1.50
2022-11-20T03:45:18.179Z,-1.50
2022-11-20T03:47:46.128Z,-1.40
2022-11-20T03:50:14.761Z,-1.40
2022-11-20T03:52:41.735Z,-1.40
2022-11-20T03:55:09.113Z,-1.40
2022-11-20T03:57:35.940Z,-1.40
2022-11-20T04:00:04.263Z,-1.40
2022-11-20T04:02:31.242Z,-1.40
2022-11-20T04:04:58.024Z,-1.40
2022-11-20T04:07:24.841Z,-1.30
2022-11-20T04:09:51.806Z,-1.30
2022-11-20T04:12:18.597Z,-1.30
2022-11-20T04:14:45.410Z,-1.30
2022-11-20T04:17:12.226Z,-1.20
2022-11-20T04:19:39.008Z,-1.30
2022-11-20T04:22:05.853Z,-1.20
2022-11-20T04:24:32.638Z,-1.20
2022-11-20T04:26:59.489Z,-1.20
2022-11-20T04:29:26.274Z,-1.10
2022-11-20T04:31:53.096Z,-1.20
2022-11-20T04:34:19.951Z,-1.10
2022-11-20T04:36:46.751Z,-1.00
2022-11-20T04:39:16.146Z,-1.10
2022-11-20T04:41:43.316Z,-1.10
2022-11-20T04:44:10.347Z,-1.10
2022-11-20T04:46:40.254Z,-1.10
2022-11-20T04:49:07.915Z,-1.00
2022-11-20T04:51:35.438Z,-1.10
2022-11-20T04:54:02.550Z,-1.00
2022-11-20T04:56:29.431Z,-1.00
2022-11-20T04:58:56.241Z,-1.00
2022-11-20T05:01:25.119Z,-1.00
2022-11-20T05:03:52.641Z,-1.00
2022-11-20T05:06:21.254Z,-1.10
2022-11-20T05:08:48.156Z,-1.10
2022-11-20T05:11:17.970Z,-1.00
2022-11-20T05:13:44.748Z,-1.00
2022-11-20T05:16:17.732Z,-1.00
2022-11-20T05:18:45.073Z,-1.00
2022-11-20T05:21:12.778Z,-1.10
2022-11-20T05:23:40.406Z,-1.00
2022-11-20T05:26:09.170Z,-1.10
2022-11-20T05:28:36.014Z,-1.00
2022-11-20T05:31:08.028Z,-1.00
2022-11-20T05:33:36.571Z,-1.00
2022-11-20T05:36:04.952Z,-0.90
2022-11-20T05:38:32.164Z,-0.80
2022-11-20T05:41:09.340Z,-0.90
2022-11-20T05:43:37.692Z,-0.80
2022-11-20T05:46:05.554Z,-0.80
2022-11-20T05:48:33.270Z,-0.80
2022-11-20T05:51:01.285Z,-0.80
2022-11-20T05:53:28.103Z,-0.80
2022-11-20T05:56:04.483Z,-0.80
2022-11-20T05:58:32.606Z,-0.80
2022-11-20T06:01:14.601Z,-0.80
2022-11-20T06:03:43.588Z,-0.80
2022-11-20T06:06:10.503Z,-0.80
2022-11-20T06:08:37.268Z,-0.80
2022-11-20T06:11:06.078Z,-0.80
2022-11-20T06:13:33.056Z,-0.70
2022-11-20T06:16:00.160Z,-0.70
2022-11-20T06:18:29.232Z,-0.80
2022-11-20T06:21:08.449Z,-0.70
2022-11-20T06:23:36.671Z,-0.70
2022-11-20T06:26:09.297Z,-0.80
2022-11-20T06:28:36.722Z,-0.70
2022-11-20T06:31:04.622Z,-0.70
2022-11-20T06:33:31.451Z,-0.70
2022-11-20T06:36:08.977Z,-0.80
2022-11-20T06:38:37.627Z,-0.80
2022-11-20T06:41:05.642Z,-0.80
2022-11-20T06:43:32.472Z,-0.80
2022-11-20T06:46:00.257Z,-0.80
2022-11-20T06:48:30.503Z,-0.90
2022-11-20T06:50:57.997Z,-0.90
2022-11-20T06:53:25.691Z,-0.90
2022-11-20T06:55:53.492Z,-0.90
2022-11-20T06:58:20.483Z,-0.90
2022-11-20T07:00:47.445Z,-1.00
2022-11-20T07:03:14.710Z,-1.00
2022-11-20T07:05:41.755Z,-1.00
2022-11-20T07:08:09.176Z,-1.00
2022-11-20T07:10:36.487Z,-1.00
2022-11-20T07:13:03.469Z,-1.10
2022-11-20T07:15:30.262Z,-1.00
2022-11-20T07:18:00.112Z,-1.10
2022-11-20T07:20:26.878Z,-1.10
2022-11-20T07:22:57.310Z,-1.10
2022-11-20T07:25:25.573Z,-1.10
2022-11-20T07:27:52.858Z,-1.10
2022-11-20T07:30:20.066Z,-1.10
2022-11-20T07:32:54.204Z,-1.10
2022-11-20T07:35:21.275Z,-1.10
2022-11-20T07:37:49.498Z,-1.10
2022-11-20T07:40:17.736Z,-1.10
2022-11-20T07:42:56.227Z,-1.10
2022-11-20T07:45:24.779Z,-1.20
2022-11-20T07:47:52.219Z,-1.20
2022-11-20T07:50:20.521Z,-1.20
2022-11-20T07:52:47.611Z,-1.10
2022-11-20T07:55:14.707Z,-1.10
2022-11-20T07:57:41.749Z,-1.00
2022-11-20T08:00:11.189Z,-1.00
2022-11-20T08:02:41.908Z,-1.00
2022-11-20T08:05:10.391Z,-1.10
2022-11-20T08:07:42.327Z,-1.00
2022-11-20T08:10:11.396Z,-0.90
2022-11-20T08:13:04.138Z,-0.90
2022-11-20T08:15:30.995Z,-0.90
2022-11-20T08:21:03.048Z,-0.90
2022-11-20T08:23:29.932Z,-0.80
2022-11-20T08:25:56.881Z,-0.90
2022-11-20T08:28:23.754Z,-0.90
2022-11-20T08:30:51.507Z,-0.80
2022-11-20T08:33:19.088Z,-0.90
2022-11-20T08:35:46.101Z,-0.90
2022-11-20T08:38:13.338Z,-0.90
2022-11-20T08:40:40.179Z,-0.90
2022-11-20T08:43:07.008Z,-0.80
2022-11-20T08:45:35.258Z,-0.90
2022-11-20T08:48:05.862Z,-0.80
2022-11-20T08:50:34.012Z,-0.90
2022-11-20T08:53:05.803Z,-0.80
2022-11-20T08:55:33.093Z,-0.80
2022-11-20T08:58:04.656Z,-0.90
2022-11-20T09:00:31.934Z,-0.90
2022-11-20T09:02:59.677Z,-0.90
2022-11-20T09:05:26.491Z,-0.90
2022-11-20T09:07:53.390Z,-0.90
2022-11-20T09:10:24.714Z,-0.90
2022-11-20T09:12:52.873Z,-0.90
2022-11-20T09:15:20.441Z,-0.90
2022-11-20T09:17:59.076Z,-0.90
2022-11-20T09:20:26.701Z,-0.90
2022-11-20T09:22:53.481Z,-0.80
2022-11-20T09:25:20.229Z,-0.90
2022-11-20T09:27:47.257Z,-0.90
2022-11-20T09:30:15.684Z,-0.90
2022-11-20T09:32:43.763Z,-0.90
2022-11-20T09:35:11.421Z,-0.90
2022-11-20T09:37:38.485Z,-0.70
2022-11-20T09:40:05.842Z,-0.70
2022-11-20T09:42:35.376Z,-0.70
2022-11-20T09:45:17.027Z,-0.70
2022-11-20T09:48:10.088Z,-0.80
2022-11-20T09:51:15.699Z,-0.80
2022-11-20T09:53:50.407Z,-0.70
2022-11-20T09:56:22.506Z,-0.70
2022-11-20T09:58:52.687Z,-0.70
2022-11-20T10:01:22.643Z,-0.70
2022-11-20T10:04:10.215Z,-0.60
2022-11-20T10:07:30.945Z,-0.60
2022-11-20T10:09:56.833Z,-0.60
2022-11-20T10:12:38.615Z,-0.60
2022-11-20T10:15:05.452Z,-0.50
2022-11-20T10:17:45.961Z,-0.50
2022-11-20T10:20:40.441Z,-0.50
2022-11-20T10:23:24.279Z,-0.50
2022-11-20T10:26:07.086Z,-0.40
2022-11-20T10:28:52.776Z,-0.40
2022-11-20T10:31:35.949Z,-0.40
2022-11-20T10:34:16.910Z,-0.40
2022-11-20T10:36:59.416Z,-0.40
2022-11-20T10:39:48.094Z,-0.30
2022-11-20T10:42:24.694Z,-0.30
2022-11-20T10:45:05.703Z,-0.30
2022-11-20T10:47:33.395Z,-0.30
2022-11-20T10:50:05.774Z,-0.20
2022-11-20T10:52:41.619Z,-0.10
2022-11-20T10:55:45.861Z,-0.10
2022-11-20T10:58:19.746Z,-0.10
2022-11-20T11:00:46.613Z,0.00
2022-11-20T11:03:29.640Z,0.10
2022-11-20T11:06:00.911Z,0.10
2022-11-20T11:08:35.195Z,0.00
2022-11-20T11:11:11.521Z,0.10
2022-11-20T11:13:38.359Z,0.10
2022-11-20T11:16:05.235Z,0.10
2022-11-20T11:18:34.169Z,0.10
2022-11-20T11:21:02.978Z,0.10
2022-11-20T11:23:47.982Z,0.10
2022-11-20T11:26:23.460Z,0.10
2022-11-20T11:28:58.554Z,0.10
2022-11-20T11:31:34.150Z,0.20
2022-11-20T11:34:18.310Z,0.30
2022-11-20T11:36:58.442Z,0.30
2022-11-20T11:39:26.349Z,0.60
2022-11-20T11:41:53.624Z,0.70
2022-11-20T11:44:41.566Z,0.80
2022-11-20T11:47:21.843Z,0.80
2022-11-20T11:49:48.676Z,0.80
2022-11-20T11:52:22.527Z,0.80
2022-11-20T11:54:56.018Z,0.90
2022-11-20T11:57:38.566Z,0.90
2022-11-20T12:00:13.003Z,0.90
2022-11-20T12:02:45.801Z,1.00
2022-11-20T12:05:18.799Z,1.00
2022-11-20T12:07:54.708Z,1.00
2022-11-20T12:10:24.897Z,1.10
2022-11-20T12:13:01.725Z,1.10
2022-11-20T12:15:34.362Z,1.20
2022-11-20T12:18:01.748Z,1.20
2022-11-20T12:20:41.942Z,1.30
2022-11-20T12:23:22.628Z,1.20
2022-11-20T12:25:55.185Z,1.30
2022-11-20T12:28:25.138Z,1.20
2022-11-20T12:31:10.744Z,1.20
2022-11-20T12:33:51.936Z,1.20
2022-11-20T12:36:33.908Z,1.30
2022-11-20T12:39:32.237Z,1.20
2022-11-20T12:42:31.497Z,1.20
2022-11-20T12:45:27.423Z,1.20
2022-11-20T12:48:43.559Z,1.20
2022-11-20T12:51:37.833Z,1.20
2022-11-20T12:54:38.491Z,1.10
2022-11-20T12:57:29.945Z,1.10
2022-11-20T13:00:21.262Z,1.10
2022-11-20T13:03:09.932Z,1.00
2022-11-20T13:05:58.077Z,0.90
2022-11-20T13:08:49.366Z,0.90
2022-11-20T13:11:22.095Z,0.90
2022-11-20T13:14:01.335Z,0.80
2022-11-20T13:17:10.564Z,0.90
2022-11-20T13:19:37.665Z,0.90
2022-11-20T13:22:04.487Z,0.80
2022-11-20T13:24:32.928Z,0.80
2022-11-20T13:27:08.777Z,0.80
2022-11-20T13:29:38.468Z,0.80
2022-11-20T13:32:14.599Z,0.90
2022-11-20T13:35:01.057Z,0.80
2022-11-20T13:37:29.466Z,0.80
2022-11-20T13:40:13.059Z,0.70
2022-11-20T13:42:46.840Z,0.70
2022-11-20T13:45:29.408Z,0.60
2022-11-20T13:47:57.978Z,0.70
2022-11-20T13:50:52.255Z,0.60
2022-11-20T13:53:34.450Z,0.60
2022-11-20T13:56:17.635Z,0.60
2022-11-20T13:59:13.463Z,0.50
2022-11-20T14:01:46.293Z,0.50
2022-11-20T14:04:26.809Z,0.50
2022-11-20T14:06:53.971Z,0.40
2022-11-20T14:09:32.505Z,0.40
2022-11-20T14:11:59.997Z,0.50
2022-11-20T14:14:29.107Z,0.50
2022-11-20T14:17:21.746Z,0.50
2022-11-20T14:19:51.503Z,0.60
2022-11-20T14:22:26.918Z,0.50
2022-11-20T14:25:19.885Z,0.50
2022-11-20T14:27:56.650Z,0.60
2022-11-20T14:30:25.939Z,0.60
2022-11-20T14:32:57.019Z,0.60
2022-11-20T14:35:31.166Z,0.60
2022-11-20T14:37:58.373Z,0.60
2022-11-20T14:40:36.532Z,0.60
2022-11-20T14:43:19.957Z,0.60
2022-11-20T14:46:10.869Z,0.60
2022-11-20T14:48:45.611Z,0.60
2022-11-20T14:51:24.401Z,0.50
2022-11-20T14:53:51.997Z,0.50
2022-11-20T14:56:25.732Z,0.50
2022-11-20T14:58:59.174Z,0.50
2022-11-20T15:01:31.669Z,0.40
2022-11-20T15:04:11.156Z,0.40
2022-11-20T15:06:39.183Z,0.40
2022-11-20T15:09:14.129Z,0.50
2022-11-20T15:11:52.815Z,0.50
2022-11-20T15:14:19.688Z,0.50
2022-11-20T15:16:46.533Z,0.60
2022-11-20T15:19:22.811Z,0.50
2022-11-20T15:21:50.286Z,0.60
2022-11-20T15:24:17.413Z,0.60
2022-11-20T15:26:44.980Z,0.60
2022-11-20T15:29:19.752Z,0.60
2022-11-20T15:31:47.092Z,0.60
2022-11-20T15:34:15.617Z,0.60
2022-11-20T15:36:43.945Z,0.60
2022-11-20T15:39:12.073Z,0.60
2022-11-20T15:41:39.223Z,0.50
2022-11-20T15:44:06.505Z,0.60
2022-11-20T15:46:39.344Z,0.60
2022-11-20T15:49:10.037Z,0.60
2022-11-20T15:51:39.214Z,0.60
2022-11-20T15:54:16.631Z,0.60
2022-11-20T15:56:43.438Z,0.60
2022-11-20T15:59:10.483Z,0.60
2022-11-20T16:01:37.517Z,0.60
2022-11-20T16:04:09.832Z,0.60
2022-11-20T16:06:36.589Z,0.60
2022-11-20T16:09:03.524Z,0.60
2022-11-20T16:11:30.290Z,0.60
2022-11-20T16:14:15.794Z,0.60
2022-11-20T16:16:44.072Z,0.60
2022-11-20T16:19:12.944Z,0.60
2022-11-20T16:21:42.340Z,0.60
2022-11-20T16:24:12.248Z,0.60
2022-11-20T16:26:39.646Z,0.50
2022-11-20T16:29:07.577Z,0.50
2022-11-20T16:31:34.795Z,0.50
2022-11-20T16:34:11.235Z,0.50
2022-11-20T16:36:42.497Z,0.50
2022-11-20T16:39:09.344Z,0.40
2022-11-20T16:41:36.391Z,0.40
2022-11-20T16:44:08.535Z,0.50
2022-11-20T16:46:35.342Z,0.50
2022-11-20T16:49:04.786Z,0.50
2022-11-20T16:51:34.619Z,0.50
2022-11-20T16:54:09.313Z,0.50
2022-11-20T16:56:36.721Z,0.50
2022-11-20T16:59:03.760Z,0.50
2022-11-20T17:01:31.647Z,0.50
2022-11-20T17:04:00.969Z,0.40
2022-11-20T17:06:30.484Z,0.30
2022-11-20T17:08:58.798Z,0.30
2022-11-20T17:11:26.886Z,0.30
2022-11-20T17:13:55.643Z,0.20
2022-11-20T17:16:24.070Z,0.10
2022-11-20T17:18:51.288Z,0.10
2022-11-20T17:21:19.340Z,0.10
2022-11-20T17:23:47.185Z,0.00
2022-11-20T17:26:19.625Z,-0.10
2022-11-20T17:28:47.558Z,-0.10
2022-11-20T17:31:16.903Z,-0.20
2022-11-20T17:33:46.002Z,-0.20
2022-11-20T17:36:15.220Z,-0.20
2022-11-20T17:38:42.474Z,-0.20
2022-11-20T17:41:13.100Z,-0.20
2022-11-20T17:43:40.648Z,-0.10
2022-11-20T17:46:10.304Z,-0.10
2022-11-20T17:48:37.700Z,-0.10
2022-11-20T17:51:06.292Z,0.00
2022-11-20T17:53:34.646Z,-0.10
2022-11-20T17:56:19.919Z,0.00
2022-11-20T17:58:46.680Z,0.00
2022-11-20T18:01:13.670Z,0.00
2022-11-20T18:03:40.670Z,0.00
2022-11-20T18:06:15.452Z,0.00
2022-11-20T18:08:42.933Z,-0.10
2022-11-20T18:11:12.498Z,-0.10
2022-11-20T18:13:59.472Z,-0.10
2022-11-20T18:16:27.636Z,-0.10
2022-11-20T18:18:55.922Z,-0.10
2022-11-20T18:21:27.614Z,-0.20
2022-11-20T18:23:58.149Z,-0.20
2022-11-20T18:26:25.890Z,-0.20
2022-11-20T18:28:53.495Z,-0.20
2022-11-20T18:31:21.194Z,-0.20
2022-11-20T18:33:48.163Z,-0.20
2022-11-20T18:36:18.484Z,-0.30
2022-11-20T18:38:47.577Z,-0.40
2022-11-20T18:41:37.930Z,-0.40
2022-11-20T18:44:26.389Z,-0.50
2022-11-20T18:46:53.510Z,-0.60
2022-11-20T18:49:20.541Z,-0.60
2022-11-20T18:51:47.361Z,-0.70
2022-11-20T18:54:14.390Z,-0.70
2022-11-20T18:56:41.166Z,-0.70
2022-11-20T18:59:09.822Z,-0.70
2022-11-20T19:01:37.323Z,-0.70
2022-11-20T19:04:09.007Z,-0.70
2022-11-20T19:06:37.184Z,-0.70
2022-11-20T19:09:09.128Z,-0.80
2022-11-20T19:11:37.061Z,-0.80
2022-11-20T19:14:04.258Z,-0.80
2022-11-20T19:16:31.560Z,-0.80
2022-11-20T19:19:03.724Z,-0.80
2022-11-20T19:21:31.370Z,-0.80
2022-11-20T19:23:59.267Z,-0.80
2022-11-20T19:26:26.777Z,-0.70
2022-11-20T19:28:54.030Z,-0.80
2022-11-20T19:31:24.838Z,-0.70
2022-11-20T19:34:00.938Z,-0.80
2022-11-20T19:36:30.974Z,-0.80
2022-11-20T19:38:58.808Z,-0.80
2022-11-20T19:41:31.392Z,-0.70
2022-11-20T19:44:00.034Z,-0.70
2022-11-20T19:46:28.254Z,-0.60
2022-11-20T19:48:55.966Z,-0.60
2022-11-20T19:51:32.407Z,-0.70
2022-11-20T19:54:00.440Z,-0.80
2022-11-20T19:56:29.405Z,-0.80
2022-11-20T19:58:57.445Z,-0.90
2022-11-20T20:01:27.688Z,-0.90
2022-11-20T20:03:55.306Z,-1.00
2022-11-20T20:06:25.126Z,-1.10
2022-11-20T20:09:07.658Z,-1.10
2022-11-20T20:11:35.437Z,-1.10
2022-11-20T20:14:07.202Z,-1.20
2022-11-20T20:16:35.128Z,-1.30
2022-11-20T20:19:04.019Z,-1.40
2022-11-20T20:21:33.294Z,-1.40
2022-11-20T20:24:00.737Z,-1.50
2022-11-20T20:26:30.524Z,-1.40
2022-11-20T20:28:58.017Z,-1.40
2022-11-20T20:31:27.076Z,-1.50
2022-11-20T20:33:54.203Z,-1.50
2022-11-20T20:36:23.008Z,-1.50
2022-11-20T20:38:59.472Z,-1.50
2022-11-20T20:41:26.260Z,-1.50
2022-11-20T20:44:11.743Z,-1.60
2022-11-20T20:46:39.217Z,-1.60
2022-11-20T20:49:07.257Z,-1.60
2022-11-20T20:51:34.454Z,-1.60
2022-11-20T20:54:01.252Z,-1.70
2022-11-20T20:56:28.143Z,-1.70
2022-11-20T20:58:55.008Z,-1.70
2022-11-20T21:01:22.864Z,-1.70
2022-11-20T21:03:49.902Z,-1.70
2022-11-20T21:06:16.922Z,-1.70
2022-11-20T21:08:44.769Z,-1.70
2022-11-20T21:11:17.332Z,-1.70
2022-11-20T21:13:45.935Z,-1.70
2022-11-20T21:16:14.402Z,-1.70
2022-11-20T21:18:41.689Z,-1.70
2022-11-20T21:21:30.564Z,-1.70
2022-11-20T21:23:57.376Z,-1.80
2022-11-20T21:26:24.362Z,-1.80
2022-11-20T21:28:51.149Z,-1.80
2022-11-20T21:31:22.170Z,-1.80
2022-11-20T21:33:50.440Z,-1.90
2022-11-20T21:36:19.399Z,-2.00
2022-11-20T21:38:47.388Z,-2.00
2022-11-20T21:41:15.702Z,-2.10
2022-11-20T21:43:44.153Z,-2.10
2022-11-20T21:46:13.601Z,-2.10
2022-11-20T21:48:42.033Z,-2.00
2022-11-20T21:51:17.202Z,-2.00
2022-11-20T21:53:45.365Z,-2.10
2022-11-20T21:56:17.709Z,-2.20
2022-11-20T21:58:47.664Z,-2.20
2022-11-20T22:01:26.175Z,-2.20
2022-11-20T22:03:59.252Z,-2.20
2022-11-20T22:06:29.385Z,-2.20
2022-11-20T22:08:56.259Z,-2.20
2022-11-20T22:11:23.418Z,-2.20
2022-11-20T22:14:08.883Z,-2.30
2022-11-20T22:16:37.009Z,-2.30
2022-11-20T22:19:05.109Z,-2.40
2022-11-20T22:21:32.386Z,-2.40
2022-11-20T22:23:59.949Z,-2.50
2022-11-20T22:26:29.064Z,-2.40
2022-11-20T22:28:58.198Z,-2.40
2022-11-20T22:31:27.088Z,-2.50
2022-11-20T22:33:54.304Z,-2.40
2022-11-20T22:36:23.640Z,-2.40
2022-11-20T22:38:50.894Z,-2.50
2022-11-20T22:41:25.062Z,-2.50
2022-11-20T22:43:56.428Z,-2.60
2022-11-20T22:46:23.875Z,-2.60
2022-11-20T22:48:52.042Z,-2.50
2022-11-20T22:51:21.107Z,-2.50
2022-11-20T22:53:48.990Z,-2.60
2022-11-20T22:56:16.934Z,-2.50
2022-11-20T22:58:45.981Z,-2.50
2022-11-20T23:01:19.577Z,-2.50
2022-11-20T23:03:48.943Z,-2.50
2022-11-20T23:06:18.416Z,-2.50
2022-11-20T23:08:45.983Z,-2.50
2022-11-20T23:11:24.155Z,-2.50
2022-11-20T23:14:24.924Z,-2.50
2022-11-20T23:16:54.268Z,-2.40
2022-11-20T23:19:22.562Z,-2.40
2022-11-20T23:21:49.390Z,-2.40
2022-11-20T23:24:16.175Z,-2.40
2022-11-20T23:26:44.704Z,-2.30
2022-11-20T23:29:11.885Z,-2.30
2022-11-20T23:31:38.691Z,-2.30
2022-11-20T23:34:05.557Z,-2.30
2022-11-20T23:36:32.765Z,-2.30
2022-11-20T23:38:59.623Z,-2.30
2022-11-20T23:41:27.530Z,-2.30
2022-11-20T23:43:54.292Z,-2.30
2022-11-20T23:46:21.509Z,-2.30
2022-11-20T23:48:48.275Z,-2.30
2022-11-20T23:51:15.140Z,-2.30
2022-11-20T23:53:42.286Z,-2.20
2022-11-20T23:56:10.790Z,-2.20
2022-11-20T23:58:38.660Z,-2.20
